sensor_id;sensor_type;location;lat;lon;timestamp;temperature;humidity
40636;DHT22;26642;55.766;37.828;2023-06-26T00:01:35;19.80;68.90
40636;DHT22;26642;55.766;37.828;2023-06-26T00:04:01;19.80;69.10
40636;DHT22;26642;55.766;37.828;2023-06-26T00:06:28;19.70;69.20
40636;DHT22;26642;55.766;37.828;2023-06-26T00:08:55;19.70;68.80
40636;DHT22;26642;55.766;37.828;2023-06-26T00:11:22;19.70;68.60
40636;DHT22;26642;55.766;37.828;2023-06-26T00:13:48;19.70;68.40
40636;DHT22;26642;55.766;37.828;2023-06-26T00:16:14;19.70;68.40
40636;DHT22;26642;55.766;37.828;2023-06-26T00:18:40;19.70;68.20
40636;DHT22;26642;55.766;37.828;2023-06-26T00:21:06;19.70;68.30
40636;DHT22;26642;55.766;37.828;2023-06-26T00:23:32;19.70;68.60
40636;DHT22;26642;55.766;37.828;2023-06-26T00:26:04;19.60;68.30
40636;DHT22;26642;55.766;37.828;2023-06-26T00:28:30;19.70;68.20
40636;DHT22;26642;55.766;37.828;2023-06-26T00:30:56;19.60;68.30
40636;DHT22;26642;55.766;37.828;2023-06-26T00:33:22;19.60;68.20
40636;DHT22;26642;55.766;37.828;2023-06-26T00:35:50;19.60;68.10
40636;DHT22;26642;55.766;37.828;2023-06-26T00:38:16;19.50;67.70
40636;DHT22;26642;55.766;37.828;2023-06-26T00:40:43;19.60;67.70
40636;DHT22;26642;55.766;37.828;2023-06-26T00:43:09;19.60;67.70
40636;DHT22;26642;55.766;37.828;2023-06-26T00:45:35;19.60;67.70
40636;DHT22;26642;55.766;37.828;2023-06-26T00:48:02;19.60;67.90
40636;DHT22;26642;55.766;37.828;2023-06-26T00:50:29;19.50;67.70
40636;DHT22;26642;55.766;37.828;2023-06-26T00:52:55;19.60;67.70
40636;DHT22;26642;55.766;37.828;2023-06-26T00:55:26;19.60;67.70
40636;DHT22;26642;55.766;37.828;2023-06-26T00:57:54;19.60;68.00
40636;DHT22;26642;55.766;37.828;2023-06-26T01:00:20;19.60;68.10
40636;DHT22;26642;55.766;37.828;2023-06-26T01:02:46;19.60;68.10
40636;DHT22;26642;55.766;37.828;2023-06-26T01:05:13;19.60;68.20
40636;DHT22;26642;55.766;37.828;2023-06-26T01:07:49;19.60;68.30
40636;DHT22;26642;55.766;37.828;2023-06-26T01:10:15;19.50;67.80
40636;DHT22;26642;55.766;37.828;2023-06-26T01:12:42;19.50;68.00
40636;DHT22;26642;55.766;37.828;2023-06-26T01:15:08;19.50;67.90
40636;DHT22;26642;55.766;37.828;2023-06-26T01:17:36;19.50;68.60
40636;DHT22;26642;55.766;37.828;2023-06-26T01:20:05;19.50;73.30
40636;DHT22;26642;55.766;37.828;2023-06-26T01:23:00;19.50;74.70
40636;DHT22;26642;55.766;37.828;2023-06-26T01:25:29;19.50;75.70
40636;DHT22;26642;55.766;37.828;2023-06-26T01:28:05;19.50;76.30
40636;DHT22;26642;55.766;37.828;2023-06-26T01:30:32;19.50;76.90
40636;DHT22;26642;55.766;37.828;2023-06-26T01:33:03;19.40;77.30
40636;DHT22;26642;55.766;37.828;2023-06-26T01:35:30;19.40;75.70
40636;DHT22;26642;55.766;37.828;2023-06-26T01:38:15;19.40;73.40
40636;DHT22;26642;55.766;37.828;2023-06-26T01:40:41;19.30;73.50
40636;DHT22;26642;55.766;37.828;2023-06-26T01:43:36;19.20;74.70
40636;DHT22;26642;55.766;37.828;2023-06-26T01:46:21;19.20;76.40
40636;DHT22;26642;55.766;37.828;2023-06-26T01:49:14;19.10;76.80
40636;DHT22;26642;55.766;37.828;2023-06-26T01:51:47;19.10;77.40
40636;DHT22;26642;55.766;37.828;2023-06-26T01:54:18;19.00;77.10
40636;DHT22;26642;55.766;37.828;2023-06-26T01:56:49;19.00;76.20
40636;DHT22;26642;55.766;37.828;2023-06-26T01:59:18;19.00;76.00
40636;DHT22;26642;55.766;37.828;2023-06-26T02:01:44;19.10;74.20
40636;DHT22;26642;55.766;37.828;2023-06-26T02:04:10;19.10;74.10
40636;DHT22;26642;55.766;37.828;2023-06-26T02:06:36;19.10;74.20
40636;DHT22;26642;55.766;37.828;2023-06-26T02:09:02;19.10;75.20
40636;DHT22;26642;55.766;37.828;2023-06-26T02:11:31;19.10;75.80
40636;DHT22;26642;55.766;37.828;2023-06-26T02:13:57;19.10;73.50
40636;DHT22;26642;55.766;37.828;2023-06-26T02:16:23;19.10;74.20
40636;DHT22;26642;55.766;37.828;2023-06-26T02:18:49;19.00;77.50
40636;DHT22;26642;55.766;37.828;2023-06-26T02:21:15;19.00;78.40
40636;DHT22;26642;55.766;37.828;2023-06-26T02:23:41;18.90;79.40
40636;DHT22;26642;55.766;37.828;2023-06-26T02:26:07;18.80;78.80
40636;DHT22;26642;55.766;37.828;2023-06-26T02:28:33;18.90;73.60
40636;DHT22;26642;55.766;37.828;2023-06-26T02:31:00;18.90;72.50
40636;DHT22;26642;55.766;37.828;2023-06-26T02:33:26;19.00;72.80
40636;DHT22;26642;55.766;37.828;2023-06-26T02:35:52;19.00;72.40
40636;DHT22;26642;55.766;37.828;2023-06-26T02:38:18;19.00;72.30
40636;DHT22;26642;55.766;37.828;2023-06-26T02:40:46;19.00;76.30
40636;DHT22;26642;55.766;37.828;2023-06-26T02:43:12;19.00;77.80
40636;DHT22;26642;55.766;37.828;2023-06-26T02:45:39;19.00;78.10
40636;DHT22;26642;55.766;37.828;2023-06-26T02:48:05;18.90;79.50
40636;DHT22;26642;55.766;37.828;2023-06-26T02:50:32;18.90;77.90
40636;DHT22;26642;55.766;37.828;2023-06-26T02:53:12;18.90;78.80
40636;DHT22;26642;55.766;37.828;2023-06-26T02:55:41;18.90;80.10
40636;DHT22;26642;55.766;37.828;2023-06-26T02:58:07;18.90;80.00
40636;DHT22;26642;55.766;37.828;2023-06-26T03:00:34;19.00;76.90
40636;DHT22;26642;55.766;37.828;2023-06-26T03:03:04;18.90;77.90
40636;DHT22;26642;55.766;37.828;2023-06-26T03:05:30;18.90;77.80
40636;DHT22;26642;55.766;37.828;2023-06-26T03:08:03;18.90;76.90
40636;DHT22;26642;55.766;37.828;2023-06-26T03:10:29;18.90;77.60
40636;DHT22;26642;55.766;37.828;2023-06-26T03:12:55;18.90;78.00
40636;DHT22;26642;55.766;37.828;2023-06-26T03:15:21;19.00;76.30
40636;DHT22;26642;55.766;37.828;2023-06-26T03:17:47;19.10;75.90
40636;DHT22;26642;55.766;37.828;2023-06-26T03:20:20;19.20;76.00
40636;DHT22;26642;55.766;37.828;2023-06-26T03:22:50;19.20;74.30
40636;DHT22;26642;55.766;37.828;2023-06-26T03:25:19;19.20;75.20
40636;DHT22;26642;55.766;37.828;2023-06-26T03:27:45;19.30;75.90
40636;DHT22;26642;55.766;37.828;2023-06-26T03:30:13;19.40;75.60
40636;DHT22;26642;55.766;37.828;2023-06-26T03:32:44;19.40;74.00
40636;DHT22;26642;55.766;37.828;2023-06-26T03:35:11;19.50;74.60
40636;DHT22;26642;55.766;37.828;2023-06-26T03:37:37;19.60;74.70
40636;DHT22;26642;55.766;37.828;2023-06-26T03:40:05;19.60;75.00
40636;DHT22;26642;55.766;37.828;2023-06-26T03:42:32;19.80;74.70
40636;DHT22;26642;55.766;37.828;2023-06-26T03:44:58;19.90;74.80
40636;DHT22;26642;55.766;37.828;2023-06-26T03:47:30;20.00;74.20
40636;DHT22;26642;55.766;37.828;2023-06-26T03:49:56;20.30;74.20
40636;DHT22;26642;55.766;37.828;2023-06-26T03:52:22;20.50;73.00
40636;DHT22;26642;55.766;37.828;2023-06-26T03:54:49;20.80;71.60
40636;DHT22;26642;55.766;37.828;2023-06-26T03:57:16;21.00;70.80
40636;DHT22;26642;55.766;37.828;2023-06-26T03:59:42;21.20;69.60
40636;DHT22;26642;55.766;37.828;2023-06-26T04:02:08;21.50;69.30
40636;DHT22;26642;55.766;37.828;2023-06-26T04:04:34;21.70;67.10
40636;DHT22;26642;55.766;37.828;2023-06-26T04:07:00;21.90;66.70
40636;DHT22;26642;55.766;37.828;2023-06-26T04:09:26;22.10;66.40
40636;DHT22;26642;55.766;37.828;2023-06-26T04:11:52;22.20;65.60
40636;DHT22;26642;55.766;37.828;2023-06-26T04:14:18;22.40;66.10
40636;DHT22;26642;55.766;37.828;2023-06-26T04:16:44;22.60;66.20
40636;DHT22;26642;55.766;37.828;2023-06-26T04:19:11;22.80;64.50
40636;DHT22;26642;55.766;37.828;2023-06-26T04:21:37;23.00;65.00
40636;DHT22;26642;55.766;37.828;2023-06-26T04:24:04;23.30;63.30
40636;DHT22;26642;55.766;37.828;2023-06-26T04:26:30;23.30;61.60
40636;DHT22;26642;55.766;37.828;2023-06-26T04:28:56;23.40;61.20
40636;DHT22;26642;55.766;37.828;2023-06-26T04:31:22;23.60;60.50
40636;DHT22;26642;55.766;37.828;2023-06-26T04:33:48;23.80;60.10
40636;DHT22;26642;55.766;37.828;2023-06-26T04:36:17;23.90;59.20
40636;DHT22;26642;55.766;37.828;2023-06-26T04:38:44;24.10;59.30
40636;DHT22;26642;55.766;37.828;2023-06-26T04:41:09;24.40;60.10
40636;DHT22;26642;55.766;37.828;2023-06-26T04:43:36;24.60;58.00
40636;DHT22;26642;55.766;37.828;2023-06-26T04:46:05;24.70;56.80
40636;DHT22;26642;55.766;37.828;2023-06-26T04:48:32;24.80;56.10
40636;DHT22;26642;55.766;37.828;2023-06-26T04:50:58;24.80;55.80
40636;DHT22;26642;55.766;37.828;2023-06-26T04:53:24;25.00;56.80
40636;DHT22;26642;55.766;37.828;2023-06-26T04:55:51;25.00;54.70
40636;DHT22;26642;55.766;37.828;2023-06-26T04:58:18;25.20;55.00
40636;DHT22;26642;55.766;37.828;2023-06-26T05:00:47;25.30;55.30
40636;DHT22;26642;55.766;37.828;2023-06-26T05:03:15;25.30;53.80
40636;DHT22;26642;55.766;37.828;2023-06-26T05:05:42;25.60;53.90
40636;DHT22;26642;55.766;37.828;2023-06-26T05:08:16;25.60;52.10
40636;DHT22;26642;55.766;37.828;2023-06-26T05:10:43;25.80;52.90
40636;DHT22;26642;55.766;37.828;2023-06-26T05:13:12;25.70;51.90
40636;DHT22;26642;55.766;37.828;2023-06-26T05:15:41;25.80;51.90
40636;DHT22;26642;55.766;37.828;2023-06-26T05:18:08;26.10;52.70
40636;DHT22;26642;55.766;37.828;2023-06-26T05:20:35;26.00;50.30
40636;DHT22;26642;55.766;37.828;2023-06-26T05:23:04;26.00;49.40
40636;DHT22;26642;55.766;37.828;2023-06-26T05:25:31;26.10;49.80
40636;DHT22;26642;55.766;37.828;2023-06-26T05:27:59;26.30;49.40
40636;DHT22;26642;55.766;37.828;2023-06-26T05:30:26;26.50;52.60
40636;DHT22;26642;55.766;37.828;2023-06-26T05:32:54;26.50;47.60
40636;DHT22;26642;55.766;37.828;2023-06-26T05:35:20;26.70;49.40
40636;DHT22;26642;55.766;37.828;2023-06-26T05:37:50;27.00;47.70
40636;DHT22;26642;55.766;37.828;2023-06-26T05:40:20;27.20;47.30
40636;DHT22;26642;55.766;37.828;2023-06-26T05:42:46;27.30;46.70
40636;DHT22;26642;55.766;37.828;2023-06-26T05:45:12;27.40;47.50
40636;DHT22;26642;55.766;37.828;2023-06-26T05:47:38;27.60;46.30
40636;DHT22;26642;55.766;37.828;2023-06-26T05:50:06;27.80;46.00
40636;DHT22;26642;55.766;37.828;2023-06-26T05:52:33;27.70;45.00
40636;DHT22;26642;55.766;37.828;2023-06-26T05:54:59;27.60;45.60
40636;DHT22;26642;55.766;37.828;2023-06-26T05:57:28;27.60;45.50
40636;DHT22;26642;55.766;37.828;2023-06-26T05:59:54;27.90;45.60
40636;DHT22;26642;55.766;37.828;2023-06-26T06:02:20;27.70;44.90
40636;DHT22;26642;55.766;37.828;2023-06-26T06:04:46;27.90;44.70
40636;DHT22;26642;55.766;37.828;2023-06-26T06:07:12;27.90;45.10
40636;DHT22;26642;55.766;37.828;2023-06-26T06:09:39;28.00;44.90
40636;DHT22;26642;55.766;37.828;2023-06-26T06:12:06;28.10;45.50
40636;DHT22;26642;55.766;37.828;2023-06-26T06:14:33;28.10;45.00
40636;DHT22;26642;55.766;37.828;2023-06-26T06:16:59;28.10;44.10
40636;DHT22;26642;55.766;37.828;2023-06-26T06:19:25;28.20;44.40
40636;DHT22;26642;55.766;37.828;2023-06-26T06:21:51;28.30;43.60
40636;DHT22;26642;55.766;37.828;2023-06-26T06:24:17;28.40;43.70
40636;DHT22;26642;55.766;37.828;2023-06-26T06:26:43;28.40;44.70
40636;DHT22;26642;55.766;37.828;2023-06-26T06:29:09;28.50;44.50
40636;DHT22;26642;55.766;37.828;2023-06-26T06:31:35;28.50;43.50
40636;DHT22;26642;55.766;37.828;2023-06-26T06:34:02;28.40;43.20
40636;DHT22;26642;55.766;37.828;2023-06-26T06:36:28;28.60;44.30
40636;DHT22;26642;55.766;37.828;2023-06-26T06:38:54;28.90;44.50
40636;DHT22;26642;55.766;37.828;2023-06-26T06:41:20;29.10;44.00
40636;DHT22;26642;55.766;37.828;2023-06-26T06:43:46;29.10;43.60
40636;DHT22;26642;55.766;37.828;2023-06-26T06:46:12;29.30;44.00
40636;DHT22;26642;55.766;37.828;2023-06-26T06:48:38;29.20;42.40
40636;DHT22;26642;55.766;37.828;2023-06-26T06:51:04;29.10;43.00
40636;DHT22;26642;55.766;37.828;2023-06-26T06:53:33;28.70;42.40
40636;DHT22;26642;55.766;37.828;2023-06-26T06:55:59;28.70;43.00
40636;DHT22;26642;55.766;37.828;2023-06-26T06:58:25;28.80;43.10
40636;DHT22;26642;55.766;37.828;2023-06-26T07:00:51;28.50;41.50
40636;DHT22;26642;55.766;37.828;2023-06-26T07:03:17;28.60;41.90
40636;DHT22;26642;55.766;37.828;2023-06-26T07:05:46;28.50;42.10
40636;DHT22;26642;55.766;37.828;2023-06-26T07:08:12;28.60;41.90
40636;DHT22;26642;55.766;37.828;2023-06-26T07:10:39;28.40;39.60
40636;DHT22;26642;55.766;37.828;2023-06-26T07:13:04;28.20;41.00
40636;DHT22;26642;55.766;37.828;2023-06-26T07:15:31;27.80;41.50
40636;DHT22;26642;55.766;37.828;2023-06-26T07:17:57;27.90;41.80
40636;DHT22;26642;55.766;37.828;2023-06-26T07:20:23;28.00;41.90
40636;DHT22;26642;55.766;37.828;2023-06-26T07:22:50;27.90;42.10
40636;DHT22;26642;55.766;37.828;2023-06-26T07:25:16;28.00;42.00
40636;DHT22;26642;55.766;37.828;2023-06-26T07:27:42;28.10;42.20
40636;DHT22;26642;55.766;37.828;2023-06-26T07:30:10;27.70;42.40
40636;DHT22;26642;55.766;37.828;2023-06-26T07:32:37;27.70;42.80
40636;DHT22;26642;55.766;37.828;2023-06-26T07:35:03;27.90;43.50
40636;DHT22;26642;55.766;37.828;2023-06-26T07:37:29;27.90;43.30
40636;DHT22;26642;55.766;37.828;2023-06-26T07:39:56;28.00;43.60
40636;DHT22;26642;55.766;37.828;2023-06-26T07:42:22;28.10;43.30
40636;DHT22;26642;55.766;37.828;2023-06-26T07:44:48;28.10;43.50
40636;DHT22;26642;55.766;37.828;2023-06-26T07:47:14;28.20;42.80
40636;DHT22;26642;55.766;37.828;2023-06-26T07:49:41;28.20;43.50
40636;DHT22;26642;55.766;37.828;2023-06-26T07:52:07;28.10;43.50
40636;DHT22;26642;55.766;37.828;2023-06-26T07:54:36;28.20;44.50
40636;DHT22;26642;55.766;37.828;2023-06-26T07:57:04;28.10;45.30
40636;DHT22;26642;55.766;37.828;2023-06-26T07:59:34;27.90;43.10
40636;DHT22;26642;55.766;37.828;2023-06-26T08:02:00;27.90;44.90
40636;DHT22;26642;55.766;37.828;2023-06-26T08:04:28;27.60;42.30
40636;DHT22;26642;55.766;37.828;2023-06-26T08:06:58;27.40;42.10
40636;DHT22;26642;55.766;37.828;2023-06-26T08:09:28;27.50;43.50
40636;DHT22;26642;55.766;37.828;2023-06-26T08:11:55;27.20;42.30
40636;DHT22;26642;55.766;37.828;2023-06-26T08:14:21;27.00;43.30
40636;DHT22;26642;55.766;37.828;2023-06-26T08:16:47;26.90;43.80
40636;DHT22;26642;55.766;37.828;2023-06-26T08:19:14;27.00;45.50
40636;DHT22;26642;55.766;37.828;2023-06-26T08:21:44;26.90;43.60
40636;DHT22;26642;55.766;37.828;2023-06-26T08:24:10;26.90;43.10
40636;DHT22;26642;55.766;37.828;2023-06-26T08:26:37;26.90;43.60
40636;DHT22;26642;55.766;37.828;2023-06-26T08:29:03;26.90;44.20
40636;DHT22;26642;55.766;37.828;2023-06-26T08:31:36;26.90;43.50
40636;DHT22;26642;55.766;37.828;2023-06-26T08:34:03;27.00;46.90
40636;DHT22;26642;55.766;37.828;2023-06-26T08:36:29;26.70;41.80
40636;DHT22;26642;55.766;37.828;2023-06-26T08:38:55;26.90;43.60
40636;DHT22;26642;55.766;37.828;2023-06-26T08:41:21;26.60;42.90
40636;DHT22;26642;55.766;37.828;2023-06-26T08:43:48;26.60;43.00
40636;DHT22;26642;55.766;37.828;2023-06-26T08:46:16;26.40;42.90
40636;DHT22;26642;55.766;37.828;2023-06-26T08:48:45;26.60;42.60
40636;DHT22;26642;55.766;37.828;2023-06-26T08:51:16;26.60;44.20
40636;DHT22;26642;55.766;37.828;2023-06-26T08:53:57;26.70;44.30
40636;DHT22;26642;55.766;37.828;2023-06-26T08:56:25;26.70;43.00
40636;DHT22;26642;55.766;37.828;2023-06-26T08:58:53;26.70;43.40
40636;DHT22;26642;55.766;37.828;2023-06-26T09:01:20;26.60;43.40
40636;DHT22;26642;55.766;37.828;2023-06-26T09:03:47;26.50;42.80
40636;DHT22;26642;55.766;37.828;2023-06-26T09:06:13;26.30;41.10
40636;DHT22;26642;55.766;37.828;2023-06-26T09:08:39;26.30;41.90
40636;DHT22;26642;55.766;37.828;2023-06-26T09:11:05;26.20;42.30
40636;DHT22;26642;55.766;37.828;2023-06-26T09:13:31;26.30;42.90
40636;DHT22;26642;55.766;37.828;2023-06-26T09:15:57;26.20;42.00
40636;DHT22;26642;55.766;37.828;2023-06-26T09:18:27;26.30;42.70
40636;DHT22;26642;55.766;37.828;2023-06-26T09:20:54;26.10;42.10
40636;DHT22;26642;55.766;37.828;2023-06-26T09:23:21;26.00;42.50
40636;DHT22;26642;55.766;37.828;2023-06-26T09:25:47;26.10;43.30
40636;DHT22;26642;55.766;37.828;2023-06-26T09:28:13;26.20;43.50
40636;DHT22;26642;55.766;37.828;2023-06-26T09:30:41;26.10;44.20
40636;DHT22;26642;55.766;37.828;2023-06-26T09:33:18;26.00;43.90
40636;DHT22;26642;55.766;37.828;2023-06-26T09:35:45;25.80;42.60
40636;DHT22;26642;55.766;37.828;2023-06-26T09:38:12;25.80;43.10
40636;DHT22;26642;55.766;37.828;2023-06-26T09:40:38;25.90;42.60
40636;DHT22;26642;55.766;37.828;2023-06-26T09:43:08;26.00;42.80
40636;DHT22;26642;55.766;37.828;2023-06-26T09:45:35;26.00;42.80
40636;DHT22;26642;55.766;37.828;2023-06-26T09:48:05;26.20;42.80
40636;DHT22;26642;55.766;37.828;2023-06-26T09:50:33;26.20;43.20
40636;DHT22;26642;55.766;37.828;2023-06-26T09:53:12;26.20;42.80
40636;DHT22;26642;55.766;37.828;2023-06-26T09:55:44;26.10;43.00
40636;DHT22;26642;55.766;37.828;2023-06-26T09:58:13;26.10;43.00
40636;DHT22;26642;55.766;37.828;2023-06-26T10:00:43;26.00;43.30
40636;DHT22;26642;55.766;37.828;2023-06-26T10:03:12;26.00;44.00
40636;DHT22;26642;55.766;37.828;2023-06-26T10:05:40;26.00;43.80
40636;DHT22;26642;55.766;37.828;2023-06-26T10:08:06;25.80;42.60
40636;DHT22;26642;55.766;37.828;2023-06-26T10:10:35;25.90;43.20
40636;DHT22;26642;55.766;37.828;2023-06-26T10:13:10;25.90;43.80
40636;DHT22;26642;55.766;37.828;2023-06-26T10:15:40;25.70;42.90
40636;DHT22;26642;55.766;37.828;2023-06-26T10:18:08;25.60;43.40
40636;DHT22;26642;55.766;37.828;2023-06-26T10:20:34;25.70;44.10
40636;DHT22;26642;55.766;37.828;2023-06-26T10:23:02;25.70;44.30
40636;DHT22;26642;55.766;37.828;2023-06-26T10:25:31;25.60;43.40
40636;DHT22;26642;55.766;37.828;2023-06-26T10:28:00;25.70;44.40
40636;DHT22;26642;55.766;37.828;2023-06-26T10:30:32;25.70;44.20
40636;DHT22;26642;55.766;37.828;2023-06-26T10:33:00;25.70;44.10
40636;DHT22;26642;55.766;37.828;2023-06-26T10:35:26;25.80;44.40
40636;DHT22;26642;55.766;37.828;2023-06-26T10:38:00;25.70;44.20
40636;DHT22;26642;55.766;37.828;2023-06-26T10:40:28;25.70;44.20
40636;DHT22;26642;55.766;37.828;2023-06-26T10:43:09;25.60;44.20
40636;DHT22;26642;55.766;37.828;2023-06-26T10:45:36;25.70;44.20
40636;DHT22;26642;55.766;37.828;2023-06-26T10:48:03;25.70;44.70
40636;DHT22;26642;55.766;37.828;2023-06-26T10:50:33;25.60;43.90
40636;DHT22;26642;55.766;37.828;2023-06-26T10:53:14;25.40;43.30
40636;DHT22;26642;55.766;37.828;2023-06-26T10:55:43;25.40;44.00
40636;DHT22;26642;55.766;37.828;2023-06-26T10:58:47;25.40;43.70
40636;DHT22;26642;55.766;37.828;2023-06-26T11:01:23;25.40;43.50
40636;DHT22;26642;55.766;37.828;2023-06-26T11:04:06;25.40;43.10
40636;DHT22;26642;55.766;37.828;2023-06-26T11:06:33;25.40;44.10
40636;DHT22;26642;55.766;37.828;2023-06-26T11:09:08;25.40;43.90
40636;DHT22;26642;55.766;37.828;2023-06-26T11:14:27;25.60;43.60
40636;DHT22;26642;55.766;37.828;2023-06-26T11:16:55;25.40;41.40
40636;DHT22;26642;55.766;37.828;2023-06-26T11:19:23;25.40;42.70
40636;DHT22;26642;55.766;37.828;2023-06-26T11:21:52;25.40;42.70
40636;DHT22;26642;55.766;37.828;2023-06-26T11:24:23;25.40;41.70
40636;DHT22;26642;55.766;37.828;2023-06-26T11:26:49;25.50;42.20
40636;DHT22;26642;55.766;37.828;2023-06-26T11:29:15;25.40;41.80
40636;DHT22;26642;55.766;37.828;2023-06-26T11:31:42;25.40;41.70
40636;DHT22;26642;55.766;37.828;2023-06-26T11:34:10;25.30;41.60
40636;DHT22;26642;55.766;37.828;2023-06-26T11:36:41;25.10;42.00
40636;DHT22;26642;55.766;37.828;2023-06-26T11:39:08;25.30;43.80
40636;DHT22;26642;55.766;37.828;2023-06-26T11:41:36;25.30;42.80
40636;DHT22;26642;55.766;37.828;2023-06-26T11:44:03;25.30;42.50
40636;DHT22;26642;55.766;37.828;2023-06-26T11:46:30;25.20;42.60
40636;DHT22;26642;55.766;37.828;2023-06-26T11:48:56;25.30;43.30
40636;DHT22;26642;55.766;37.828;2023-06-26T11:51:22;25.30;42.40
40636;DHT22;26642;55.766;37.828;2023-06-26T11:53:48;25.20;42.30
40636;DHT22;26642;55.766;37.828;2023-06-26T11:56:16;25.30;43.00
40636;DHT22;26642;55.766;37.828;2023-06-26T11:58:59;25.40;42.70
40636;DHT22;26642;55.766;37.828;2023-06-26T12:01:40;25.40;42.80
40636;DHT22;26642;55.766;37.828;2023-06-26T12:04:12;25.50;43.30
40636;DHT22;26642;55.766;37.828;2023-06-26T12:06:41;25.50;42.40
40636;DHT22;26642;55.766;37.828;2023-06-26T12:09:09;25.60;43.00
40636;DHT22;26642;55.766;37.828;2023-06-26T12:11:41;25.70;43.20
40636;DHT22;26642;55.766;37.828;2023-06-26T12:14:08;25.60;41.70
40636;DHT22;26642;55.766;37.828;2023-06-26T12:16:35;25.70;42.60
40636;DHT22;26642;55.766;37.828;2023-06-26T12:19:06;25.70;43.30
40636;DHT22;26642;55.766;37.828;2023-06-26T12:24:12;25.80;42.80
40636;DHT22;26642;55.766;37.828;2023-06-26T12:26:41;25.60;42.60
40636;DHT22;26642;55.766;37.828;2023-06-26T12:29:17;25.60;42.90
40636;DHT22;26642;55.766;37.828;2023-06-26T12:31:45;25.50;43.10
40636;DHT22;26642;55.766;37.828;2023-06-26T12:34:13;25.50;43.00
40636;DHT22;26642;55.766;37.828;2023-06-26T12:36:52;25.50;42.50
40636;DHT22;26642;55.766;37.828;2023-06-26T12:39:20;25.40;43.00
40636;DHT22;26642;55.766;37.828;2023-06-26T12:41:57;25.50;43.20
40636;DHT22;26642;55.766;37.828;2023-06-26T12:44:30;25.50;43.10
40636;DHT22;26642;55.766;37.828;2023-06-26T12:47:00;25.60;43.60
40636;DHT22;26642;55.766;37.828;2023-06-26T12:49:49;25.50;43.70
40636;DHT22;26642;55.766;37.828;2023-06-26T12:52:16;25.70;43.90
40636;DHT22;26642;55.766;37.828;2023-06-26T12:54:43;25.60;43.90
40636;DHT22;26642;55.766;37.828;2023-06-26T12:57:09;25.50;43.30
40636;DHT22;26642;55.766;37.828;2023-06-26T12:59:37;25.50;43.60
40636;DHT22;26642;55.766;37.828;2023-06-26T13:02:03;25.50;43.30
40636;DHT22;26642;55.766;37.828;2023-06-26T13:04:30;25.40;43.30
40636;DHT22;26642;55.766;37.828;2023-06-26T13:06:57;25.50;43.30
40636;DHT22;26642;55.766;37.828;2023-06-26T13:09:24;25.50;42.50
40636;DHT22;26642;55.766;37.828;2023-06-26T13:11:51;25.50;42.40
40636;DHT22;26642;55.766;37.828;2023-06-26T13:14:17;25.40;41.50
40636;DHT22;26642;55.766;37.828;2023-06-26T13:16:43;25.40;42.00
40636;DHT22;26642;55.766;37.828;2023-06-26T13:19:09;25.40;42.40
40636;DHT22;26642;55.766;37.828;2023-06-26T13:21:36;25.40;41.80
40636;DHT22;26642;55.766;37.828;2023-06-26T13:24:02;25.30;41.60
40636;DHT22;26642;55.766;37.828;2023-06-26T13:26:32;25.40;42.20
40636;DHT22;26642;55.766;37.828;2023-06-26T13:28:58;25.30;42.60
40636;DHT22;26642;55.766;37.828;2023-06-26T13:31:24;25.20;42.70
40636;DHT22;26642;55.766;37.828;2023-06-26T13:33:50;25.20;43.10
40636;DHT22;26642;55.766;37.828;2023-06-26T13:36:19;25.30;43.30
40636;DHT22;26642;55.766;37.828;2023-06-26T13:38:46;25.30;43.80
40636;DHT22;26642;55.766;37.828;2023-06-26T13:41:15;25.20;43.10
40636;DHT22;26642;55.766;37.828;2023-06-26T13:43:41;25.30;43.20
40636;DHT22;26642;55.766;37.828;2023-06-26T13:46:07;25.30;43.20
40636;DHT22;26642;55.766;37.828;2023-06-26T13:48:33;25.30;43.90
40636;DHT22;26642;55.766;37.828;2023-06-26T13:50:59;25.40;44.40
40636;DHT22;26642;55.766;37.828;2023-06-26T13:53:25;25.30;43.50
40636;DHT22;26642;55.766;37.828;2023-06-26T13:55:51;25.30;43.60
40636;DHT22;26642;55.766;37.828;2023-06-26T13:58:17;25.30;43.80
40636;DHT22;26642;55.766;37.828;2023-06-26T14:00:44;25.40;43.20
40636;DHT22;26642;55.766;37.828;2023-06-26T14:03:11;25.40;43.40
40636;DHT22;26642;55.766;37.828;2023-06-26T14:05:37;25.50;43.50
40636;DHT22;26642;55.766;37.828;2023-06-26T14:08:04;25.40;43.40
40636;DHT22;26642;55.766;37.828;2023-06-26T14:10:31;25.40;43.40
40636;DHT22;26642;55.766;37.828;2023-06-26T14:12:59;25.30;42.80
40636;DHT22;26642;55.766;37.828;2023-06-26T14:15:25;25.40;43.80
40636;DHT22;26642;55.766;37.828;2023-06-26T14:17:51;25.40;43.30
40636;DHT22;26642;55.766;37.828;2023-06-26T14:20:18;25.40;43.40
40636;DHT22;26642;55.766;37.828;2023-06-26T14:22:48;25.40;43.10
40636;DHT22;26642;55.766;37.828;2023-06-26T14:25:15;25.20;43.30
40636;DHT22;26642;55.766;37.828;2023-06-26T14:27:41;25.30;43.80
40636;DHT22;26642;55.766;37.828;2023-06-26T14:30:08;25.40;43.50
40636;DHT22;26642;55.766;37.828;2023-06-26T14:32:34;25.30;43.10
40636;DHT22;26642;55.766;37.828;2023-06-26T14:35:01;25.20;42.30
40636;DHT22;26642;55.766;37.828;2023-06-26T14:37:29;25.30;43.90
40636;DHT22;26642;55.766;37.828;2023-06-26T14:39:56;25.30;42.20
40636;DHT22;26642;55.766;37.828;2023-06-26T14:42:22;25.40;42.80
40636;DHT22;26642;55.766;37.828;2023-06-26T14:44:48;25.40;44.20
40636;DHT22;26642;55.766;37.828;2023-06-26T14:47:19;25.40;43.00
40636;DHT22;26642;55.766;37.828;2023-06-26T14:49:45;25.40;41.60
40636;DHT22;26642;55.766;37.828;2023-06-26T14:52:11;25.20;41.10
40636;DHT22;26642;55.766;37.828;2023-06-26T14:54:37;25.20;42.40
40636;DHT22;26642;55.766;37.828;2023-06-26T14:57:04;25.30;41.90
40636;DHT22;26642;55.766;37.828;2023-06-26T14:59:30;25.20;41.00
40636;DHT22;26642;55.766;37.828;2023-06-26T15:01:56;25.20;41.50
40636;DHT22;26642;55.766;37.828;2023-06-26T15:04:22;25.20;41.90
40636;DHT22;26642;55.766;37.828;2023-06-26T15:06:47;25.30;41.70
40636;DHT22;26642;55.766;37.828;2023-06-26T15:09:14;25.30;41.70
40636;DHT22;26642;55.766;37.828;2023-06-26T15:11:40;25.30;41.60
40636;DHT22;26642;55.766;37.828;2023-06-26T15:14:06;25.40;42.60
40636;DHT22;26642;55.766;37.828;2023-06-26T15:16:32;25.30;44.20
40636;DHT22;26642;55.766;37.828;2023-06-26T15:18:58;24.90;46.00
40636;DHT22;26642;55.766;37.828;2023-06-26T15:21:24;24.80;46.60
40636;DHT22;26642;55.766;37.828;2023-06-26T15:23:50;24.80;47.00
40636;DHT22;26642;55.766;37.828;2023-06-26T15:26:16;24.80;47.30